createdAt,value
2023-05-23T00:00:19.792Z,14.44
2023-05-23T00:03:09.558Z,14.47
2023-05-23T00:05:38.766Z,14.48
2023-05-23T00:08:08.311Z,14.49
2023-05-23T00:10:37.285Z,14.51
2023-05-23T00:13:09.688Z,14.52
2023-05-23T00:15:42.053Z,14.53
2023-05-23T00:18:11.823Z,14.54
2023-05-23T00:20:44.507Z,14.52
2023-05-23T00:23:19.339Z,14.50
2023-05-23T00:25:53.228Z,14.46
2023-05-23T00:28:22.825Z,14.43
2023-05-23T00:30:52.147Z,14.39
2023-05-23T00:33:22.468Z,14.36
2023-05-23T00:35:51.632Z,14.33
2023-05-23T00:38:20.721Z,14.29
2023-05-23T00:40:50.042Z,14.24
2023-05-23T00:43:21.408Z,14.20
2023-05-23T00:45:50.560Z,14.15
2023-05-23T00:48:20.060Z,14.10
2023-05-23T00:50:49.299Z,14.08
2023-05-23T00:53:18.709Z,14.06
2023-05-23T00:55:48.090Z,14.04
2023-05-23T00:58:17.962Z,14.03
2023-05-23T01:00:47.793Z,14.04
2023-05-23T01:03:18.367Z,14.05
2023-05-23T01:05:48.035Z,14.06
2023-05-23T01:08:17.030Z,14.06
2023-05-23T01:10:46.330Z,14.07
2023-05-23T01:13:40.659Z,14.10
2023-05-23T01:16:22.126Z,14.10
2023-05-23T01:18:58.615Z,14.10
2023-05-23T01:21:28.374Z,14.10
2023-05-23T01:24:27.274Z,14.13
2023-05-23T01:27:31.089Z,14.11
2023-05-23T01:30:02.366Z,14.07
2023-05-23T01:32:32.482Z,14.02
2023-05-23T01:35:01.759Z,13.99
2023-05-23T01:37:30.854Z,13.95
2023-05-23T01:40:00.172Z,13.93
2023-05-23T01:42:29.347Z,13.90
2023-05-23T01:44:59.882Z,13.86
2023-05-23T01:47:29.367Z,13.84
2023-05-23T01:50:00.434Z,13.79
2023-05-23T01:52:29.800Z,13.75
2023-05-23T01:54:59.868Z,13.71
2023-05-23T01:57:31.055Z,13.66
2023-05-23T02:00:01.151Z,13.63
2023-05-23T02:02:30.415Z,13.60
2023-05-23T02:05:00.244Z,13.58
2023-05-23T02:07:29.245Z,13.57
2023-05-23T02:09:58.218Z,13.58
2023-05-23T02:12:27.516Z,13.61
2023-05-23T02:14:57.223Z,13.64
2023-05-23T02:17:26.572Z,13.69
2023-05-23T02:19:56.919Z,13.74
2023-05-23T02:22:26.174Z,13.78
2023-05-23T02:24:55.667Z,13.82
2023-05-23T02:27:24.857Z,13.84
2023-05-23T02:29:54.051Z,13.87
2023-05-23T02:32:23.234Z,13.89
2023-05-23T02:34:52.930Z,13.91
2023-05-23T02:37:23.283Z,13.93
2023-05-23T02:39:52.460Z,13.95
2023-05-23T02:42:21.791Z,13.96
2023-05-23T02:44:51.392Z,13.97
2023-05-23T02:47:20.913Z,13.97
2023-05-23T02:49:51.003Z,13.96
2023-05-23T02:52:19.909Z,13.93
2023-05-23T02:54:49.206Z,13.91
2023-05-23T02:57:18.469Z,13.90
2023-05-23T02:59:47.511Z,13.88
2023-05-23T03:02:16.838Z,13.86
2023-05-23T03:04:46.719Z,13.84
2023-05-23T03:07:27.525Z,13.84
2023-05-23T03:09:57.928Z,13.81
2023-05-23T03:12:29.371Z,13.78
2023-05-23T03:14:58.595Z,13.75
2023-05-23T03:17:27.976Z,13.74
2023-05-23T03:19:59.426Z,13.76
2023-05-23T03:22:28.515Z,13.78
2023-05-23T03:24:57.396Z,13.80
2023-05-23T03:27:26.917Z,13.83
2023-05-23T03:29:55.949Z,13.90
2023-05-23T03:32:25.170Z,13.96
2023-05-23T03:34:54.616Z,14.00
2023-05-23T03:37:23.608Z,14.05
2023-05-23T03:39:53.312Z,14.12
2023-05-23T03:42:22.586Z,14.20
2023-05-23T03:44:51.531Z,14.31
2023-05-23T03:47:21.516Z,14.45
2023-05-23T03:49:51.134Z,14.67
2023-05-23T03:52:20.604Z,15.02
2023-05-23T03:54:49.736Z,15.38
2023-05-23T03:57:18.848Z,15.71
2023-05-23T03:59:48.638Z,16.16
2023-05-23T04:02:17.766Z,16.68
2023-05-23T04:04:47.364Z,17.15
2023-05-23T04:07:16.808Z,17.61
2023-05-23T04:09:46.486Z,18.05
2023-05-23T04:12:16.679Z,18.49
2023-05-23T04:14:48.742Z,18.92
2023-05-23T04:17:18.818Z,19.34
2023-05-23T04:19:48.569Z,19.76
2023-05-23T04:22:18.204Z,20.20
2023-05-23T04:24:49.531Z,20.66
2023-05-23T04:27:19.041Z,21.11
2023-05-23T04:29:48.646Z,21.47
2023-05-23T04:32:19.791Z,21.83
2023-05-23T04:34:49.848Z,22.19
2023-05-23T04:37:26.357Z,22.64
2023-05-23T04:39:56.803Z,23.01
2023-05-23T04:42:48.742Z,23.33
2023-05-23T04:45:34.325Z,23.60
2023-05-23T04:48:17.496Z,23.94
2023-05-23T04:50:49.102Z,24.36
2023-05-23T04:53:20.044Z,24.65
2023-05-23T04:55:49.645Z,25.00
2023-05-23T04:58:20.386Z,25.31
2023-05-23T05:00:50.017Z,25.61
2023-05-23T05:03:20.222Z,26.03
2023-05-23T05:05:50.127Z,26.38
2023-05-23T05:08:20.262Z,26.60
2023-05-23T05:10:49.748Z,26.79
2023-05-23T05:13:20.908Z,27.05
2023-05-23T05:15:55.176Z,27.25
2023-05-23T05:18:28.923Z,27.46
2023-05-23T05:20:59.654Z,27.50
2023-05-23T05:23:29.022Z,27.51
2023-05-23T05:25:58.561Z,27.62
2023-05-23T05:28:27.868Z,27.75
2023-05-23T05:30:57.294Z,27.88
2023-05-23T05:33:28.546Z,28.04
2023-05-23T05:36:10.310Z,28.07
2023-05-23T05:38:39.411Z,28.21
2023-05-23T05:41:09.407Z,28.48
2023-05-23T05:43:42.816Z,28.62
2023-05-23T05:46:12.358Z,28.76
2023-05-23T05:48:41.426Z,28.57
2023-05-23T05:51:13.688Z,28.48
2023-05-23T05:53:44.009Z,28.48
2023-05-23T05:56:16.753Z,28.88
2023-05-23T05:58:46.224Z,29.26
2023-05-23T06:01:17.818Z,29.35
2023-05-23T06:03:47.292Z,29.25
2023-05-23T06:06:16.914Z,29.11
2023-05-23T06:08:47.683Z,29.01
2023-05-23T06:11:18.740Z,28.83
2023-05-23T06:13:47.854Z,28.65
2023-05-23T06:16:17.499Z,28.61
2023-05-23T06:18:46.980Z,28.60
2023-05-23T06:21:16.269Z,28.71
2023-05-23T06:23:46.182Z,28.95
2023-05-23T06:26:15.674Z,28.99
2023-05-23T06:28:44.981Z,28.93
2023-05-23T06:31:14.672Z,29.15
2023-05-23T06:33:43.878Z,29.40
2023-05-23T06:36:12.985Z,29.64
2023-05-23T06:38:42.288Z,29.77
2023-05-23T06:41:11.537Z,29.87
2023-05-23T06:43:40.673Z,29.53
2023-05-23T06:46:18.243Z,29.26
2023-05-23T06:48:47.329Z,29.33
2023-05-23T06:51:16.987Z,29.56
2023-05-23T06:53:46.814Z,29.67
2023-05-23T06:56:15.884Z,29.89
2023-05-23T06:58:53.731Z,30.35
2023-05-23T07:01:22.958Z,30.62
2023-05-23T07:03:53.723Z,30.72
2023-05-23T07:06:23.082Z,30.43
2023-05-23T07:08:52.762Z,30.40
2023-05-23T07:11:23.478Z,30.79
2023-05-23T07:13:59.223Z,30.91
2023-05-23T07:16:37.259Z,30.78
2023-05-23T07:19:08.820Z,30.82
2023-05-23T07:21:47.091Z,30.81
2023-05-23T07:24:18.436Z,30.63
2023-05-23T07:26:47.579Z,30.75
2023-05-23T07:29:17.049Z,31.13
2023-05-23T07:31:47.881Z,31.22
2023-05-23T07:34:17.173Z,31.25
2023-05-23T07:36:55.597Z,31.31
2023-05-23T07:39:27.905Z,31.36
2023-05-23T07:41:57.595Z,31.44
2023-05-23T07:44:26.982Z,31.55
2023-05-23T07:46:56.682Z,31.39
2023-05-23T07:49:26.930Z,31.34
2023-05-23T07:51:56.300Z,31.28
2023-05-23T07:54:25.813Z,31.25
2023-05-23T07:56:57.776Z,31.07
2023-05-23T07:59:27.426Z,31.05
2023-05-23T08:01:57.024Z,30.77
2023-05-23T08:04:28.474Z,30.47
2023-05-23T08:07:04.850Z,30.39
2023-05-23T08:09:55.232Z,30.14
2023-05-23T08:12:24.915Z,29.93
2023-05-23T08:15:00.716Z,30.04
2023-05-23T08:17:37.856Z,30.05
2023-05-23T08:20:09.002Z,30.18
2023-05-23T08:22:38.303Z,30.45
2023-05-23T08:25:08.363Z,30.74
2023-05-23T08:27:38.857Z,30.68
2023-05-23T08:30:16.255Z,30.47
2023-05-23T08:32:45.503Z,30.34
2023-05-23T08:35:14.853Z,30.26
2023-05-23T08:37:46.337Z,30.31
2023-05-23T08:40:20.866Z,30.49
2023-05-23T08:42:58.111Z,30.65
2023-05-23T08:45:30.619Z,30.74
2023-05-23T08:48:01.767Z,30.89
2023-05-23T08:50:32.137Z,30.86
2023-05-23T08:53:02.417Z,30.80
2023-05-23T08:55:32.549Z,30.76
2023-05-23T08:58:03.753Z,30.71
2023-05-23T09:00:52.466Z,30.61
2023-05-23T09:03:23.431Z,30.65
2023-05-23T09:06:00.663Z,30.64
2023-05-23T09:08:30.420Z,30.96
2023-05-23T09:11:03.088Z,31.12
2023-05-23T09:13:33.466Z,31.07
2023-05-23T09:16:11.199Z,31.16
2023-05-23T09:18:45.247Z,31.29
2023-05-23T09:21:16.937Z,31.34
2023-05-23T09:24:08.932Z,31.26
2023-05-23T09:26:39.047Z,31.15
2023-05-23T09:29:08.623Z,31.12
2023-05-23T09:31:38.268Z,31.19
2023-05-23T09:34:11.002Z,31.31
2023-05-23T09:36:44.302Z,31.34
2023-05-23T09:39:13.558Z,31.50
2023-05-23T09:41:43.161Z,31.65
2023-05-23T09:44:12.658Z,31.79
2023-05-23T09:46:42.117Z,31.90
2023-05-23T09:49:17.453Z,31.87
2023-05-23T09:51:58.295Z,31.62
2023-05-23T09:54:27.582Z,31.68
2023-05-23T09:57:01.464Z,31.92
2023-05-23T09:59:34.237Z,32.21
2023-05-23T10:02:06.877Z,32.40
2023-05-23T10:04:37.451Z,32.23
2023-05-23T10:07:22.522Z,32.25
2023-05-23T10:10:00.822Z,32.32
2023-05-23T10:12:33.063Z,32.17
2023-05-23T10:15:07.848Z,32.16
2023-05-23T10:17:41.932Z,32.19
2023-05-23T10:20:15.198Z,32.01
2023-05-23T10:22:44.345Z,31.68
2023-05-23T10:25:13.907Z,31.72
2023-05-23T10:27:43.393Z,31.93
2023-05-23T10:30:13.160Z,31.86
2023-05-23T10:32:42.954Z,31.91
2023-05-23T10:35:32.607Z,32.08
2023-05-23T10:38:17.040Z,32.18
2023-05-23T10:40:51.848Z,32.06
2023-05-23T10:43:37.144Z,32.18
2023-05-23T10:46:09.334Z,31.95
2023-05-23T10:48:43.157Z,31.86
2023-05-23T10:51:14.779Z,31.83
2023-05-23T10:53:45.710Z,31.79
2023-05-23T10:56:24.851Z,31.65
2023-05-23T10:58:58.748Z,31.54
2023-05-23T11:01:27.964Z,31.59
2023-05-23T11:03:57.139Z,31.44
2023-05-23T11:06:39.218Z,31.34
2023-05-23T11:09:13.485Z,31.36
2023-05-23T11:11:54.703Z,31.35
2023-05-23T11:14:37.992Z,31.26
2023-05-23T11:17:13.256Z,31.18
2023-05-23T11:20:07.679Z,31.02
2023-05-23T11:22:37.022Z,30.84
2023-05-23T11:25:10.494Z,30.89
2023-05-23T11:27:41.663Z,30.90
2023-05-23T11:30:14.305Z,30.91
2023-05-23T11:32:53.476Z,30.99
2023-05-23T11:35:22.731Z,31.07
2023-05-23T11:37:51.651Z,31.24
2023-05-23T11:40:31.964Z,31.36
2023-05-23T11:43:06.639Z,31.31
2023-05-23T11:45:37.576Z,30.97
2023-05-23T11:48:13.825Z,30.65
2023-05-23T11:50:48.285Z,30.23
2023-05-23T11:53:20.775Z,29.87
2023-05-23T11:55:53.365Z,29.92
2023-05-23T11:58:37.475Z,30.23
2023-05-23T12:01:10.918Z,30.27
2023-05-23T12:03:51.417Z,30.38
2023-05-23T12:06:22.052Z,30.37
2023-05-23T12:08:54.322Z,30.24
2023-05-23T12:11:24.954Z,30.29
2023-05-23T12:13:54.464Z,30.40
2023-05-23T12:16:24.255Z,30.19
2023-05-23T12:18:53.807Z,29.83
2023-05-23T12:21:25.749Z,29.33
2023-05-23T12:23:55.144Z,28.95
2023-05-23T12:26:24.799Z,28.94
2023-05-23T12:28:53.953Z,29.00
2023-05-23T12:31:23.223Z,29.00
2023-05-23T12:33:53.614Z,28.91
2023-05-23T12:36:27.508Z,29.02
2023-05-23T12:39:04.796Z,29.11
2023-05-23T12:41:34.119Z,29.13
2023-05-23T12:44:05.028Z,28.76
2023-05-23T12:46:34.160Z,28.53
2023-05-23T12:49:04.031Z,28.74
2023-05-23T12:51:33.236Z,29.12
2023-05-23T12:54:02.490Z,29.43
2023-05-23T12:56:31.872Z,29.39
2023-05-23T12:59:02.249Z,29.43
2023-05-23T13:01:31.573Z,29.67
2023-05-23T13:04:03.435Z,29.78
2023-05-23T13:06:33.662Z,30.04
2023-05-23T13:09:03.981Z,30.38
2023-05-23T13:11:32.991Z,30.65
2023-05-23T13:14:02.768Z,30.70
2023-05-23T13:16:32.421Z,30.86
2023-05-23T13:19:01.505Z,31.01
2023-05-23T13:21:31.902Z,30.93
2023-05-23T13:24:01.026Z,30.89
2023-05-23T13:26:30.436Z,30.95
2023-05-23T13:28:59.495Z,31.05
2023-05-23T13:31:28.459Z,30.93
2023-05-23T13:33:57.583Z,30.94
2023-05-23T13:36:26.988Z,30.78
2023-05-23T13:38:56.192Z,30.53
2023-05-23T13:41:25.973Z,30.34
2023-05-23T13:43:55.081Z,29.89
2023-05-23T13:46:24.112Z,29.39
2023-05-23T13:48:53.596Z,28.92
2023-05-23T13:51:22.998Z,28.56
2023-05-23T13:53:52.554Z,28.36
2023-05-23T13:56:22.113Z,28.40
2023-05-23T13:58:51.287Z,28.52
2023-05-23T14:01:21.120Z,28.49
2023-05-23T14:03:50.835Z,28.51
2023-05-23T14:06:20.031Z,28.52
2023-05-23T14:08:49.327Z,28.48
2023-05-23T14:11:18.362Z,28.38
2023-05-23T14:13:47.299Z,28.24
2023-05-23T14:16:16.222Z,28.07
2023-05-23T14:18:45.914Z,27.83
2023-05-23T14:21:15.217Z,27.50
2023-05-23T14:23:44.719Z,27.10
2023-05-23T14:26:14.336Z,26.64
2023-05-23T14:28:43.433Z,26.19
2023-05-23T14:31:12.550Z,25.84
2023-05-23T14:33:41.930Z,25.50
2023-05-23T14:36:11.567Z,25.12
2023-05-23T14:38:42.070Z,24.80
2023-05-23T14:41:14.043Z,24.51
2023-05-23T14:43:43.186Z,24.32
2023-05-23T14:46:12.470Z,24.14
2023-05-23T14:48:43.280Z,23.96
2023-05-23T14:51:18.210Z,23.82
2023-05-23T14:53:57.358Z,23.66
2023-05-23T14:56:27.350Z,23.62
2023-05-23T14:58:57.679Z,23.56
2023-05-23T15:01:27.322Z,23.55
2023-05-23T15:03:56.604Z,23.53
2023-05-23T15:06:25.979Z,23.52
2023-05-23T15:08:55.080Z,23.57
2023-05-23T15:11:26.681Z,23.53
2023-05-23T15:13:56.650Z,23.54
2023-05-23T15:16:25.846Z,23.57
2023-05-23T15:18:54.875Z,23.63
2023-05-23T15:21:24.038Z,23.69
2023-05-23T15:23:53.691Z,23.77
2023-05-23T15:26:24.076Z,23.85
2023-05-23T15:28:53.087Z,23.89
2023-05-23T15:31:22.356Z,23.87
2023-05-23T15:33:51.592Z,23.84
2023-05-23T15:36:20.614Z,23.78
2023-05-23T15:38:49.775Z,23.76
2023-05-23T15:41:18.931Z,23.79
2023-05-23T15:43:48.170Z,23.81
2023-05-23T15:46:17.614Z,23.82
2023-05-23T15:48:46.964Z,23.86
2023-05-23T15:51:16.623Z,23.89
2023-05-23T15:53:59.830Z,23.93
2023-05-23T15:56:30.025Z,23.95
2023-05-23T15:59:00.105Z,23.98
2023-05-23T16:01:29.606Z,23.96
2023-05-23T16:03:58.995Z,23.90
2023-05-23T16:06:28.477Z,23.83
2023-05-23T16:08:57.546Z,23.75
2023-05-23T16:11:26.917Z,23.58
2023-05-23T16:13:56.468Z,23.43
2023-05-23T16:16:26.348Z,23.30
2023-05-23T16:18:55.956Z,23.23
2023-05-23T16:21:25.280Z,23.21
2023-05-23T16:23:54.269Z,23.19
2023-05-23T16:26:23.465Z,23.15
2023-05-23T16:28:52.789Z,23.12
2023-05-23T16:31:27.578Z,23.07
2023-05-23T16:33:57.671Z,23.05
2023-05-23T16:36:27.551Z,23.03
2023-05-23T16:38:56.552Z,23.00
2023-05-23T16:41:25.809Z,23.00
2023-05-23T16:43:54.921Z,22.96
2023-05-23T16:46:24.068Z,22.92
2023-05-23T16:48:54.045Z,22.90
2023-05-23T16:51:23.236Z,22.88
2023-05-23T16:53:52.538Z,22.87
2023-05-23T16:56:21.836Z,22.86
2023-05-23T16:58:51.346Z,22.81
2023-05-23T17:01:20.705Z,22.78
2023-05-23T17:03:49.899Z,22.75
2023-05-23T17:06:19.012Z,22.71
2023-05-23T17:08:48.345Z,22.66
2023-05-23T17:11:18.156Z,22.61
2023-05-23T17:13:47.520Z,22.53
2023-05-23T17:16:20.498Z,22.43
2023-05-23T17:18:50.414Z,22.33
2023-05-23T17:21:19.653Z,22.24
2023-05-23T17:23:49.159Z,22.15
2023-05-23T17:26:19.726Z,22.05
2023-05-23T17:28:49.045Z,21.96
2023-05-23T17:31:18.542Z,21.87
2023-05-23T17:33:47.624Z,21.78
2023-05-23T17:36:16.789Z,21.69
2023-05-23T17:38:45.802Z,21.59
2023-05-23T17:41:15.949Z,21.49
2023-05-23T17:43:44.900Z,21.40
2023-05-23T17:46:14.146Z,21.32
2023-05-23T17:48:47.554Z,21.26
2023-05-23T17:51:17.112Z,21.18
2023-05-23T17:53:46.509Z,21.10
2023-05-23T17:56:15.840Z,21.00
2023-05-23T17:58:44.809Z,20.93
2023-05-23T18:01:15.262Z,20.84
2023-05-23T18:03:45.002Z,20.73
2023-05-23T18:06:14.032Z,20.62
2023-05-23T18:08:43.147Z,20.52
2023-05-23T18:11:12.361Z,20.44
2023-05-23T18:13:41.651Z,20.34
2023-05-23T18:16:10.826Z,20.26
2023-05-23T18:18:40.653Z,20.16
2023-05-23T18:21:09.735Z,20.08
2023-05-23T18:23:38.834Z,20.01
2023-05-23T18:26:09.181Z,19.92
2023-05-23T18:28:38.376Z,19.84
2023-05-23T18:31:07.778Z,19.78
2023-05-23T18:33:37.384Z,19.72
2023-05-23T18:36:07.325Z,19.66
2023-05-23T18:38:36.437Z,19.62
2023-05-23T18:41:05.676Z,19.60
2023-05-23T18:43:34.802Z,19.58
2023-05-23T18:46:05.229Z,19.56
2023-05-23T18:48:35.755Z,19.55
2023-05-23T18:51:05.648Z,19.55
2023-05-23T18:53:34.739Z,19.52
2023-05-23T18:56:04.252Z,19.47
2023-05-23T18:58:33.371Z,19.42
2023-05-23T19:01:04.082Z,19.37
2023-05-23T19:03:37.365Z,19.32
2023-05-23T19:06:07.423Z,19.25
2023-05-23T19:08:36.931Z,19.21
2023-05-23T19:11:06.195Z,19.16
2023-05-23T19:13:35.106Z,19.11
2023-05-23T19:16:04.932Z,19.08
2023-05-23T19:18:34.302Z,19.05
2023-05-23T19:21:04.253Z,19.02
2023-05-23T19:23:33.623Z,18.98
2023-05-23T19:26:02.818Z,18.95
2023-05-23T19:28:31.909Z,18.88
2023-05-23T19:31:01.626Z,18.83
2023-05-23T19:33:30.620Z,18.77
2023-05-23T19:35:59.494Z,18.72
2023-05-23T19:38:28.607Z,18.68
2023-05-23T19:40:58.217Z,18.65
2023-05-23T19:43:27.731Z,18.63
2023-05-23T19:45:57.273Z,18.60
2023-05-23T19:48:26.840Z,18.57
2023-05-23T19:50:56.038Z,18.55
2023-05-23T19:53:24.984Z,18.53
2023-05-23T19:55:54.119Z,18.51
2023-05-23T19:58:23.322Z,18.47
2023-05-23T20:00:52.719Z,18.42
2023-05-23T20:03:21.758Z,18.38
2023-05-23T20:05:51.527Z,18.35
2023-05-23T20:08:20.769Z,18.30
2023-05-23T20:10:50.108Z,18.26
2023-05-23T20:13:19.225Z,18.24
2023-05-23T20:15:49.273Z,18.21
2023-05-23T20:18:18.411Z,18.19
2023-05-23T20:20:47.552Z,18.16
2023-05-23T20:23:16.680Z,18.13
2023-05-23T20:25:45.640Z,18.10
2023-05-23T20:28:15.035Z,18.08
2023-05-23T20:30:44.455Z,18.06
2023-05-23T20:33:15.694Z,18.02
2023-05-23T20:35:48.471Z,17.98
2023-05-23T20:38:20.087Z,17.96
2023-05-23T20:40:51.491Z,17.92
2023-05-23T20:43:22.672Z,17.88
2023-05-23T20:45:51.859Z,17.85
2023-05-23T20:48:20.838Z,17.78
2023-05-23T20:50:50.033Z,17.73
2023-05-23T20:53:19.202Z,17.66
2023-05-23T20:55:49.071Z,17.61
2023-05-23T20:58:18.581Z,17.56
2023-05-23T21:00:47.848Z,17.51
2023-05-23T21:03:17.964Z,17.45
2023-05-23T21:05:46.939Z,17.40
2023-05-23T21:08:16.284Z,17.35
2023-05-23T21:10:49.815Z,17.29
2023-05-23T21:13:20.881Z,17.25
2023-05-23T21:15:50.475Z,17.21
2023-05-23T21:18:19.584Z,17.17
2023-05-23T21:20:50.672Z,17.14
2023-05-23T21:23:19.926Z,17.11
2023-05-23T21:25:49.326Z,17.07
2023-05-23T21:28:18.452Z,17.01
2023-05-23T21:30:47.765Z,16.97
2023-05-23T21:33:17.434Z,16.94
2023-05-23T21:35:46.430Z,16.91
2023-05-23T21:38:18.797Z,16.89
2023-05-23T21:40:48.100Z,16.87
2023-05-23T21:43:17.399Z,16.85
2023-05-23T21:45:46.593Z,16.82
2023-05-23T21:48:15.651Z,16.80
2023-05-23T21:50:45.201Z,16.80
2023-05-23T21:53:14.375Z,16.80
2023-05-23T21:55:43.596Z,16.79
2023-05-23T21:58:12.644Z,16.77
2023-05-23T22:00:43.588Z,16.77
2023-05-23T22:03:12.922Z,16.76
2023-05-23T22:05:42.380Z,16.74
2023-05-23T22:08:11.855Z,16.70
2023-05-23T22:10:41.300Z,16.69
2023-05-23T22:13:10.615Z,16.68
2023-05-23T22:15:39.644Z,16.65
2023-05-23T22:18:08.639Z,16.63
2023-05-23T22:20:39.348Z,16.58
2023-05-23T22:23:10.042Z,16.54
2023-05-23T22:25:39.192Z,16.48
2023-05-23T22:28:08.425Z,16.44
2023-05-23T22:30:37.937Z,16.40
2023-05-23T22:33:12.994Z,16.35
2023-05-23T22:35:42.957Z,16.29
2023-05-23T22:38:11.951Z,16.24
2023-05-23T22:40:41.589Z,16.19
2023-05-23T22:43:11.028Z,16.14
2023-05-23T22:45:42.723Z,16.09
2023-05-23T22:48:12.059Z,16.06
2023-05-23T22:50:41.079Z,16.02
2023-05-23T22:53:11.736Z,15.97
2023-05-23T22:55:41.005Z,15.93
2023-05-23T22:58:10.756Z,15.92
2023-05-23T23:00:39.641Z,15.91
2023-05-23T23:03:09.496Z,15.90
2023-05-23T23:05:39.071Z,15.89
2023-05-23T23:08:08.277Z,15.88
2023-05-23T23:10:37.268Z,15.87
2023-05-23T23:13:06.566Z,15.87
2023-05-23T23:15:37.019Z,15.89
2023-05-23T23:18:07.141Z,15.90
2023-05-23T23:20:36.839Z,15.91
2023-05-23T23:23:06.352Z,15.92
2023-05-23T23:25:36.696Z,15.91
2023-05-23T23:28:07.270Z,15.89
2023-05-23T23:30:36.209Z,15.87
2023-05-23T23:33:05.341Z,15.85
2023-05-23T23:35:34.673Z,15.82
2023-05-23T23:38:04.194Z,15.77
2023-05-23T23:40:33.828Z,15.74
2023-05-23T23:43:03.188Z,15.70
2023-05-23T23:45:32.198Z,15.65
2023-05-23T23:48:01.402Z,15.59
2023-05-23T23:50:31.915Z,15.52
2023-05-23T23:53:01.006Z,15.48
2023-05-23T23:55:30.226Z,15.42
2023-05-23T23:57:59.341Z,15.37
